sensor_id;sensor_type;location;lat;lon;timestamp;temperature;humidity
70214;DHT22;60138;55.808;37.078;2022-09-17T00:01:56;9.79;79.99
70214;DHT22;60138;55.808;37.078;2022-09-17T00:04:23;9.75;79.91
70214;DHT22;60138;55.808;37.078;2022-09-17T00:06:48;9.69;79.88
70214;DHT22;60138;55.808;37.078;2022-09-17T00:09:14;9.65;79.91
70214;DHT22;60138;55.808;37.078;2022-09-17T00:11:41;9.60;79.91
70214;DHT22;60138;55.808;37.078;2022-09-17T00:14:13;9.56;79.92
70214;DHT22;60138;55.808;37.078;2022-09-17T00:16:42;9.49;79.91
70214;DHT22;60138;55.808;37.078;2022-09-17T00:19:13;9.47;79.91
70214;DHT22;60138;55.808;37.078;2022-09-17T00:21:40;9.42;79.92
70214;DHT22;60138;55.808;37.078;2022-09-17T00:24:06;9.38;79.88
70214;DHT22;60138;55.808;37.078;2022-09-17T00:26:33;9.33;79.86
70214;DHT22;60138;55.808;37.078;2022-09-17T00:28:59;9.31;79.99
70214;DHT22;60138;55.808;37.078;2022-09-17T00:31:26;9.27;79.94
70214;DHT22;60138;55.808;37.078;2022-09-17T00:33:53;9.25;80.13
70214;DHT22;60138;55.808;37.078;2022-09-17T00:36:20;9.23;80.13
70214;DHT22;60138;55.808;37.078;2022-09-17T00:38:51;9.21;80.20
70214;DHT22;60138;55.808;37.078;2022-09-17T00:41:17;9.17;80.13
70214;DHT22;60138;55.808;37.078;2022-09-17T00:43:45;9.12;80.09
70214;DHT22;60138;55.808;37.078;2022-09-17T00:46:43;9.11;80.20
70214;DHT22;60138;55.808;37.078;2022-09-17T00:49:18;9.09;80.14
70214;DHT22;60138;55.808;37.078;2022-09-17T00:51:52;9.06;80.13
70214;DHT22;60138;55.808;37.078;2022-09-17T00:54:20;9.03;80.11
70214;DHT22;60138;55.808;37.078;2022-09-17T00:56:46;8.98;80.07
70214;DHT22;60138;55.808;37.078;2022-09-17T00:59:13;8.98;80.14
70214;DHT22;60138;55.808;37.078;2022-09-17T01:01:39;8.96;80.24
70214;DHT22;60138;55.808;37.078;2022-09-17T01:04:05;8.95;80.53
70214;DHT22;60138;55.808;37.078;2022-09-17T01:06:37;8.92;80.34
70214;DHT22;60138;55.808;37.078;2022-09-17T01:09:31;8.89;80.33
70214;DHT22;60138;55.808;37.078;2022-09-17T01:12:08;8.83;80.20
70214;DHT22;60138;55.808;37.078;2022-09-17T01:15:03;8.78;80.19
70214;DHT22;60138;55.808;37.078;2022-09-17T01:20:21;8.72;80.18
70214;DHT22;60138;55.808;37.078;2022-09-17T01:33:40;8.61;80.35
70214;DHT22;60138;55.808;37.078;2022-09-17T01:39:39;8.56;80.25
70214;DHT22;60138;55.808;37.078;2022-09-17T01:41:52;8.52;80.26
70214;DHT22;60138;55.808;37.078;2022-09-17T01:47:20;8.48;80.30
70214;DHT22;60138;55.808;37.078;2022-09-17T01:49:44;8.47;80.36
70214;DHT22;60138;55.808;37.078;2022-09-17T01:52:12;8.47;80.36
70214;DHT22;60138;55.808;37.078;2022-09-17T01:54:43;8.46;80.41
70214;DHT22;60138;55.808;37.078;2022-09-17T01:57:31;8.45;80.39
70214;DHT22;60138;55.808;37.078;2022-09-17T02:00:07;8.43;80.36
70214;DHT22;60138;55.808;37.078;2022-09-17T02:02:45;8.39;80.43
70214;DHT22;60138;55.808;37.078;2022-09-17T02:05:19;8.38;80.40
70214;DHT22;60138;55.808;37.078;2022-09-17T02:07:53;8.37;80.42
70214;DHT22;60138;55.808;37.078;2022-09-17T02:10:28;8.37;80.43
70214;DHT22;60138;55.808;37.078;2022-09-17T02:13:06;8.34;80.43
70214;DHT22;60138;55.808;37.078;2022-09-17T02:15:42;8.31;80.41
70214;DHT22;60138;55.808;37.078;2022-09-17T02:18:23;8.30;80.46
70214;DHT22;60138;55.808;37.078;2022-09-17T02:20:53;8.29;80.46
70214;DHT22;60138;55.808;37.078;2022-09-17T02:23:26;8.27;80.44
70214;DHT22;60138;55.808;37.078;2022-09-17T02:26:07;8.27;80.51
70214;DHT22;60138;55.808;37.078;2022-09-17T02:28:42;8.26;80.49
70214;DHT22;60138;55.808;37.078;2022-09-17T02:31:10;8.21;80.48
70214;DHT22;60138;55.808;37.078;2022-09-17T02:33:37;8.20;80.49
70214;DHT22;60138;55.808;37.078;2022-09-17T02:36:04;8.19;80.47
70214;DHT22;60138;55.808;37.078;2022-09-17T02:38:30;8.20;80.65
70214;DHT22;60138;55.808;37.078;2022-09-17T02:41:46;8.18;80.57
70214;DHT22;60138;55.808;37.078;2022-09-17T02:44:16;8.15;80.58
70214;DHT22;60138;55.808;37.078;2022-09-17T02:55:31;8.04;80.48
70214;DHT22;60138;55.808;37.078;2022-09-17T03:00:29;8.03;80.56
70214;DHT22;60138;55.808;37.078;2022-09-17T03:03:07;8.02;80.61
70214;DHT22;60138;55.808;37.078;2022-09-17T03:05:35;7.99;80.62
70214;DHT22;60138;55.808;37.078;2022-09-17T03:08:02;7.99;80.62
70214;DHT22;60138;55.808;37.078;2022-09-17T03:10:28;8.00;80.62
70214;DHT22;60138;55.808;37.078;2022-09-17T03:12:53;8.02;80.79
70214;DHT22;60138;55.808;37.078;2022-09-17T03:15:19;8.00;80.70
70214;DHT22;60138;55.808;37.078;2022-09-17T03:17:45;8.00;80.67
70214;DHT22;60138;55.808;37.078;2022-09-17T03:20:10;7.98;80.62
70214;DHT22;60138;55.808;37.078;2022-09-17T03:22:36;7.98;80.68
70214;DHT22;60138;55.808;37.078;2022-09-17T03:25:02;7.97;80.62
70214;DHT22;60138;55.808;37.078;2022-09-17T03:27:29;7.94;80.59
70214;DHT22;60138;55.808;37.078;2022-09-17T03:29:55;7.94;80.65
70214;DHT22;60138;55.808;37.078;2022-09-17T03:32:20;7.94;80.59
70214;DHT22;60138;55.808;37.078;2022-09-17T03:34:46;7.92;80.56
70214;DHT22;60138;55.808;37.078;2022-09-17T03:37:12;7.91;80.57
70214;DHT22;60138;55.808;37.078;2022-09-17T03:39:38;7.89;80.59
70214;DHT22;60138;55.808;37.078;2022-09-17T03:42:04;7.91;80.63
70214;DHT22;60138;55.808;37.078;2022-09-17T03:44:30;7.93;80.78
70214;DHT22;60138;55.808;37.078;2022-09-17T03:46:56;7.96;80.77
70214;DHT22;60138;55.808;37.078;2022-09-17T03:49:21;7.98;80.76
70214;DHT22;60138;55.808;37.078;2022-09-17T03:51:47;7.98;80.73
70214;DHT22;60138;55.808;37.078;2022-09-17T03:54:13;7.98;80.78
70214;DHT22;60138;55.808;37.078;2022-09-17T03:56:38;7.99;80.83
70214;DHT22;60138;55.808;37.078;2022-09-17T03:59:04;8.02;81.01
70214;DHT22;60138;55.808;37.078;2022-09-17T04:01:30;8.03;81.00
70214;DHT22;60138;55.808;37.078;2022-09-17T04:03:56;8.04;81.02
70214;DHT22;60138;55.808;37.078;2022-09-17T04:06:21;8.05;80.91
70214;DHT22;60138;55.808;37.078;2022-09-17T04:08:47;8.08;80.90
70214;DHT22;60138;55.808;37.078;2022-09-17T04:11:13;8.11;81.05
70214;DHT22;60138;55.808;37.078;2022-09-17T04:13:39;8.14;80.98
70214;DHT22;60138;55.808;37.078;2022-09-17T04:16:04;8.17;80.93
70214;DHT22;60138;55.808;37.078;2022-09-17T04:18:30;8.18;80.88
70214;DHT22;60138;55.808;37.078;2022-09-17T04:20:56;8.19;81.04
70214;DHT22;60138;55.808;37.078;2022-09-17T04:23:22;8.22;80.98
70214;DHT22;60138;55.808;37.078;2022-09-17T04:25:48;8.24;80.96
70214;DHT22;60138;55.808;37.078;2022-09-17T04:28:14;8.28;80.97
70214;DHT22;60138;55.808;37.078;2022-09-17T04:30:39;8.29;80.95
70214;DHT22;60138;55.808;37.078;2022-09-17T04:33:05;8.33;81.09
70214;DHT22;60138;55.808;37.078;2022-09-17T04:35:31;8.37;81.04
70214;DHT22;60138;55.808;37.078;2022-09-17T04:37:57;8.41;81.03
70214;DHT22;60138;55.808;37.078;2022-09-17T04:40:24;8.44;81.03
70214;DHT22;60138;55.808;37.078;2022-09-17T04:42:54;8.50;81.11
70214;DHT22;60138;55.808;37.078;2022-09-17T04:45:21;8.60;81.36
70214;DHT22;60138;55.808;37.078;2022-09-17T04:47:47;8.67;81.26
70214;DHT22;60138;55.808;37.078;2022-09-17T04:50:13;8.74;81.28
70214;DHT22;60138;55.808;37.078;2022-09-17T04:52:42;8.76;81.20
70214;DHT22;60138;55.808;37.078;2022-09-17T04:55:08;8.78;81.24
70214;DHT22;60138;55.808;37.078;2022-09-17T04:57:34;8.83;81.16
70214;DHT22;60138;55.808;37.078;2022-09-17T05:00:00;8.92;81.14
70214;DHT22;60138;55.808;37.078;2022-09-17T05:02:26;9.08;81.37
70214;DHT22;60138;55.808;37.078;2022-09-17T05:04:52;9.23;81.29
70214;DHT22;60138;55.808;37.078;2022-09-17T05:07:17;9.34;81.42
70214;DHT22;60138;55.808;37.078;2022-09-17T05:09:43;9.37;81.14
70214;DHT22;60138;55.808;37.078;2022-09-17T05:12:22;9.35;80.62
70214;DHT22;60138;55.808;37.078;2022-09-17T05:14:47;9.40;80.74
70214;DHT22;60138;55.808;37.078;2022-09-17T05:17:13;9.39;80.82
70214;DHT22;60138;55.808;37.078;2022-09-17T05:19:39;9.41;80.82
70214;DHT22;60138;55.808;37.078;2022-09-17T05:22:04;9.50;80.84
70214;DHT22;60138;55.808;37.078;2022-09-17T05:24:30;9.61;80.94
70214;DHT22;60138;55.808;37.078;2022-09-17T05:26:56;9.76;81.04
70214;DHT22;60138;55.808;37.078;2022-09-17T05:29:21;9.91;80.96
70214;DHT22;60138;55.808;37.078;2022-09-17T05:31:47;10.09;81.11
70214;DHT22;60138;55.808;37.078;2022-09-17T05:34:13;10.20;80.81
70214;DHT22;60138;55.808;37.078;2022-09-17T05:36:38;10.29;80.69
70214;DHT22;60138;55.808;37.078;2022-09-17T05:39:04;10.36;80.58
70214;DHT22;60138;55.808;37.078;2022-09-17T05:41:29;10.44;80.43
70214;DHT22;60138;55.808;37.078;2022-09-17T05:43:55;10.62;80.53
70214;DHT22;60138;55.808;37.078;2022-09-17T05:46:21;10.75;80.31
70214;DHT22;60138;55.808;37.078;2022-09-17T05:48:46;10.90;80.30
70214;DHT22;60138;55.808;37.078;2022-09-17T05:51:12;11.07;80.26
70214;DHT22;60138;55.808;37.078;2022-09-17T05:53:38;11.23;80.16
70214;DHT22;60138;55.808;37.078;2022-09-17T05:56:03;11.34;79.91
70214;DHT22;60138;55.808;37.078;2022-09-17T05:58:29;11.43;79.85
70214;DHT22;60138;55.808;37.078;2022-09-17T06:00:55;11.52;79.73
70214;DHT22;60138;55.808;37.078;2022-09-17T06:03:24;11.62;79.66
70214;DHT22;60138;55.808;37.078;2022-09-17T06:06:00;11.69;79.37
70214;DHT22;60138;55.808;37.078;2022-09-17T06:08:27;11.74;78.93
70214;DHT22;60138;55.808;37.078;2022-09-17T06:10:53;11.81;78.67
70214;DHT22;60138;55.808;37.078;2022-09-17T06:13:19;11.85;78.59
70214;DHT22;60138;55.808;37.078;2022-09-17T06:15:50;11.96;78.44
70214;DHT22;60138;55.808;37.078;2022-09-17T06:18:16;12.02;78.22
70214;DHT22;60138;55.808;37.078;2022-09-17T06:20:42;12.08;78.14
70214;DHT22;60138;55.808;37.078;2022-09-17T06:23:07;12.18;78.07
70214;DHT22;60138;55.808;37.078;2022-09-17T06:25:33;12.29;78.07
70214;DHT22;60138;55.808;37.078;2022-09-17T06:28:01;12.35;77.58
70214;DHT22;60138;55.808;37.078;2022-09-17T06:30:27;12.41;77.55
70214;DHT22;60138;55.808;37.078;2022-09-17T06:32:53;12.51;77.70
70214;DHT22;60138;55.808;37.078;2022-09-17T06:35:18;12.63;77.09
70214;DHT22;60138;55.808;37.078;2022-09-17T06:37:44;12.69;76.93
70214;DHT22;60138;55.808;37.078;2022-09-17T06:40:10;12.72;76.32
70214;DHT22;60138;55.808;37.078;2022-09-17T06:42:36;12.73;74.99
70214;DHT22;60138;55.808;37.078;2022-09-17T06:45:02;12.82;75.57
70214;DHT22;60138;55.808;37.078;2022-09-17T06:47:29;12.95;75.17
70214;DHT22;60138;55.808;37.078;2022-09-17T06:49:55;13.03;74.76
70214;DHT22;60138;55.808;37.078;2022-09-17T06:52:20;13.11;74.54
70214;DHT22;60138;55.808;37.078;2022-09-17T06:54:46;13.18;73.93
70214;DHT22;60138;55.808;37.078;2022-09-17T06:57:12;13.24;74.22
70214;DHT22;60138;55.808;37.078;2022-09-17T06:59:37;13.36;73.18
70214;DHT22;60138;55.808;37.078;2022-09-17T07:02:03;13.45;73.69
70214;DHT22;60138;55.808;37.078;2022-09-17T07:04:29;13.54;73.47
70214;DHT22;60138;55.808;37.078;2022-09-17T07:06:54;13.54;70.97
70214;DHT22;60138;55.808;37.078;2022-09-17T07:09:20;13.63;72.30
70214;DHT22;60138;55.808;37.078;2022-09-17T07:11:46;13.69;70.39
70214;DHT22;60138;55.808;37.078;2022-09-17T07:14:11;13.73;71.32
70214;DHT22;60138;55.808;37.078;2022-09-17T07:16:37;13.83;71.30
70214;DHT22;60138;55.808;37.078;2022-09-17T07:19:03;13.89;70.55
70214;DHT22;60138;55.808;37.078;2022-09-17T07:21:29;13.99;70.70
70214;DHT22;60138;55.808;37.078;2022-09-17T07:23:54;13.98;69.37
70214;DHT22;60138;55.808;37.078;2022-09-17T07:26:20;14.06;69.66
70214;DHT22;60138;55.808;37.078;2022-09-17T07:28:46;14.10;70.00
70214;DHT22;60138;55.808;37.078;2022-09-17T07:31:12;14.18;70.39
70214;DHT22;60138;55.808;37.078;2022-09-17T07:33:38;14.24;70.07
70214;DHT22;60138;55.808;37.078;2022-09-17T07:36:07;14.30;70.36
70214;DHT22;60138;55.808;37.078;2022-09-17T07:38:33;14.34;70.32
70214;DHT22;60138;55.808;37.078;2022-09-17T07:41:08;14.36;69.27
70214;DHT22;60138;55.808;37.078;2022-09-17T07:43:34;14.40;69.74
70214;DHT22;60138;55.808;37.078;2022-09-17T07:46:02;14.47;69.07
70214;DHT22;60138;55.808;37.078;2022-09-17T07:48:29;14.58;68.55
70214;DHT22;60138;55.808;37.078;2022-09-17T07:50:55;14.66;67.46
70214;DHT22;60138;55.808;37.078;2022-09-17T07:53:21;14.73;68.23
70214;DHT22;60138;55.808;37.078;2022-09-17T07:56:05;14.70;65.83
70214;DHT22;60138;55.808;37.078;2022-09-17T07:58:34;14.70;67.70
70214;DHT22;60138;55.808;37.078;2022-09-17T08:01:04;14.72;67.20
70214;DHT22;60138;55.808;37.078;2022-09-17T08:03:29;14.69;67.97
70214;DHT22;60138;55.808;37.078;2022-09-17T08:06:07;14.56;64.49
70214;DHT22;60138;55.808;37.078;2022-09-17T08:08:34;14.28;63.40
70214;DHT22;60138;55.808;37.078;2022-09-17T08:11:02;14.11;66.38
70214;DHT22;60138;55.808;37.078;2022-09-17T08:13:28;13.94;65.66
70214;DHT22;60138;55.808;37.078;2022-09-17T08:16:02;13.78;67.63
70214;DHT22;60138;55.808;37.078;2022-09-17T08:18:28;13.66;67.47
70214;DHT22;60138;55.808;37.078;2022-09-17T08:20:56;13.54;67.29
70214;DHT22;60138;55.808;37.078;2022-09-17T08:23:22;13.47;67.77
70214;DHT22;60138;55.808;37.078;2022-09-17T08:25:55;13.38;66.75
70214;DHT22;60138;55.808;37.078;2022-09-17T08:28:22;13.35;68.52
70214;DHT22;60138;55.808;37.078;2022-09-17T08:30:48;13.32;68.72
70214;DHT22;60138;55.808;37.078;2022-09-17T08:33:14;13.29;67.23
70214;DHT22;60138;55.808;37.078;2022-09-17T08:35:40;13.30;67.72
70214;DHT22;60138;55.808;37.078;2022-09-17T08:38:06;13.24;68.11
70214;DHT22;60138;55.808;37.078;2022-09-17T08:40:38;13.24;66.91
70214;DHT22;60138;55.808;37.078;2022-09-17T08:43:13;13.29;67.80
70214;DHT22;60138;55.808;37.078;2022-09-17T08:45:41;13.30;67.35
70214;DHT22;60138;55.808;37.078;2022-09-17T08:48:10;13.32;67.81
70214;DHT22;60138;55.808;37.078;2022-09-17T08:50:39;13.37;66.85
70214;DHT22;60138;55.808;37.078;2022-09-17T08:56:12;13.53;65.15
70214;DHT22;60138;55.808;37.078;2022-09-17T09:01:34;13.91;65.17
70214;DHT22;60138;55.808;37.078;2022-09-17T09:06:31;14.22;65.52
70214;DHT22;60138;55.808;37.078;2022-09-17T09:09:02;14.43;65.61
70214;DHT22;60138;55.808;37.078;2022-09-17T09:11:30;14.70;61.49
70214;DHT22;60138;55.808;37.078;2022-09-17T09:14:05;14.88;62.70
70214;DHT22;60138;55.808;37.078;2022-09-17T09:16:38;14.93;58.53
70214;DHT22;60138;55.808;37.078;2022-09-17T09:19:46;15.01;61.54
70214;DHT22;60138;55.808;37.078;2022-09-17T09:25:25;15.00;57.18
70214;DHT22;60138;55.808;37.078;2022-09-17T09:28:16;14.99;59.80
70214;DHT22;60138;55.808;37.078;2022-09-17T09:33:55;15.31;59.49
70214;DHT22;60138;55.808;37.078;2022-09-17T09:36:20;15.48;58.90
70214;DHT22;60138;55.808;37.078;2022-09-17T09:44:12;15.65;53.56
70214;DHT22;60138;55.808;37.078;2022-09-17T09:46:53;15.39;57.77
70214;DHT22;60138;55.808;37.078;2022-09-17T09:58:20;14.75;56.00
70214;DHT22;60138;55.808;37.078;2022-09-17T10:00:47;14.80;57.86
70214;DHT22;60138;55.808;37.078;2022-09-17T10:03:20;14.86;58.90
70214;DHT22;60138;55.808;37.078;2022-09-17T10:06:01;14.97;55.90
70214;DHT22;60138;55.808;37.078;2022-09-17T10:08:30;15.21;52.41
70214;DHT22;60138;55.808;37.078;2022-09-17T10:11:15;15.53;56.92
70214;DHT22;60138;55.808;37.078;2022-09-17T10:13:44;15.84;56.66
70214;DHT22;60138;55.808;37.078;2022-09-17T10:18:42;16.29;51.69
70214;DHT22;60138;55.808;37.078;2022-09-17T10:21:19;16.42;51.70
70214;DHT22;60138;55.808;37.078;2022-09-17T10:23:45;16.52;54.65
70214;DHT22;60138;55.808;37.078;2022-09-17T10:26:29;16.71;50.89
70214;DHT22;60138;55.808;37.078;2022-09-17T10:29:01;16.86;44.74
70214;DHT22;60138;55.808;37.078;2022-09-17T10:31:45;16.93;53.23
70214;DHT22;60138;55.808;37.078;2022-09-17T10:34:19;17.11;52.24
70214;DHT22;60138;55.808;37.078;2022-09-17T10:36:46;17.33;54.33
70214;DHT22;60138;55.808;37.078;2022-09-17T10:41:54;17.45;49.15
70214;DHT22;60138;55.808;37.078;2022-09-17T10:44:24;17.36;53.18
70214;DHT22;60138;55.808;37.078;2022-09-17T10:46:51;17.22;53.16
70214;DHT22;60138;55.808;37.078;2022-09-17T10:54:43;16.69;53.09
70214;DHT22;60138;55.808;37.078;2022-09-17T10:57:24;16.50;54.60
70214;DHT22;60138;55.808;37.078;2022-09-17T11:00:01;16.44;55.55
70214;DHT22;60138;55.808;37.078;2022-09-17T11:13:36;16.37;51.23
70214;DHT22;60138;55.808;37.078;2022-09-17T11:27:46;16.54;50.94
70214;DHT22;60138;55.808;37.078;2022-09-17T11:30:18;16.50;53.53
70214;DHT22;60138;55.808;37.078;2022-09-17T11:35:26;16.31;52.88
70214;DHT22;60138;55.808;37.078;2022-09-17T11:40:57;17.49;52.06
70214;DHT22;60138;55.808;37.078;2022-09-17T11:43:34;17.52;51.06
70214;DHT22;60138;55.808;37.078;2022-09-17T11:48:31;17.91;51.24
70214;DHT22;60138;55.808;37.078;2022-09-17T11:51:07;18.10;51.08
70214;DHT22;60138;55.808;37.078;2022-09-17T11:53:43;18.33;50.31
70214;DHT22;60138;55.808;37.078;2022-09-17T12:07:01;17.63;50.59
70214;DHT22;60138;55.808;37.078;2022-09-17T12:09:31;17.47;51.85
70214;DHT22;60138;55.808;37.078;2022-09-17T12:12:17;17.32;51.89
70214;DHT22;60138;55.808;37.078;2022-09-17T12:14:54;17.14;51.95
70214;DHT22;60138;55.808;37.078;2022-09-17T12:17:24;17.02;51.06
70214;DHT22;60138;55.808;37.078;2022-09-17T12:19:56;17.16;51.54
70214;DHT22;60138;55.808;37.078;2022-09-17T12:22:26;17.15;52.71
70214;DHT22;60138;55.808;37.078;2022-09-17T12:24:54;17.13;52.96
70214;DHT22;60138;55.808;37.078;2022-09-17T12:27:42;17.16;52.12
70214;DHT22;60138;55.808;37.078;2022-09-17T12:33:04;19.50;51.85
70214;DHT22;60138;55.808;37.078;2022-09-17T12:46:48;18.86;50.57
70214;DHT22;60138;55.808;37.078;2022-09-17T12:51:57;19.92;48.82
70214;DHT22;60138;55.808;37.078;2022-09-17T13:00:10;18.44;47.50
70214;DHT22;60138;55.808;37.078;2022-09-17T13:02:44;18.27;50.62
70214;DHT22;60138;55.808;37.078;2022-09-17T13:21:28;17.87;52.12
70214;DHT22;60138;55.808;37.078;2022-09-17T13:23:55;17.89;50.92
70214;DHT22;60138;55.808;37.078;2022-09-17T13:26:33;17.75;52.14
70214;DHT22;60138;55.808;37.078;2022-09-17T13:28:59;17.53;53.28
70214;DHT22;60138;55.808;37.078;2022-09-17T13:34:01;17.28;53.01
70214;DHT22;60138;55.808;37.078;2022-09-17T13:36:48;17.25;53.23
70214;DHT22;60138;55.808;37.078;2022-09-17T13:39:37;17.39;52.24
70214;DHT22;60138;55.808;37.078;2022-09-17T13:42:11;17.49;53.36
70214;DHT22;60138;55.808;37.078;2022-09-17T13:44:45;17.47;52.88
70214;DHT22;60138;55.808;37.078;2022-09-17T13:47:24;17.49;53.34
70214;DHT22;60138;55.808;37.078;2022-09-17T13:50:03;17.65;52.66
70214;DHT22;60138;55.808;37.078;2022-09-17T13:52:32;17.69;53.17
70214;DHT22;60138;55.808;37.078;2022-09-17T13:54:59;17.58;51.63
70214;DHT22;60138;55.808;37.078;2022-09-17T13:57:26;17.44;52.56
70214;DHT22;60138;55.808;37.078;2022-09-17T13:59:57;17.25;47.96
70214;DHT22;60138;55.808;37.078;2022-09-17T14:05:31;17.06;51.75
70214;DHT22;60138;55.808;37.078;2022-09-17T14:08:11;17.08;52.38
70214;DHT22;60138;55.808;37.078;2022-09-17T14:10:41;17.16;50.17
70214;DHT22;60138;55.808;37.078;2022-09-17T14:15:58;16.65;51.95
70214;DHT22;60138;55.808;37.078;2022-09-17T14:23:41;16.19;53.04
70214;DHT22;60138;55.808;37.078;2022-09-17T14:26:13;16.19;53.10
70214;DHT22;60138;55.808;37.078;2022-09-17T14:29:11;16.12;54.26
70214;DHT22;60138;55.808;37.078;2022-09-17T14:31:42;16.07;54.27
70214;DHT22;60138;55.808;37.078;2022-09-17T14:34:19;16.03;54.88
70214;DHT22;60138;55.808;37.078;2022-09-17T14:36:46;15.98;55.16
70214;DHT22;60138;55.808;37.078;2022-09-17T14:39:28;15.88;55.46
70214;DHT22;60138;55.808;37.078;2022-09-17T14:42:01;15.73;56.04
70214;DHT22;60138;55.808;37.078;2022-09-17T14:44:30;15.58;56.50
70214;DHT22;60138;55.808;37.078;2022-09-17T14:47:02;15.41;56.97
70214;DHT22;60138;55.808;37.078;2022-09-17T14:49:33;15.25;57.10
70214;DHT22;60138;55.808;37.078;2022-09-17T14:52:00;15.09;57.52
70214;DHT22;60138;55.808;37.078;2022-09-17T14:57:01;14.78;58.55
70214;DHT22;60138;55.808;37.078;2022-09-17T14:59:49;14.66;58.87
70214;DHT22;60138;55.808;37.078;2022-09-17T15:02:33;14.57;59.20
70214;DHT22;60138;55.808;37.078;2022-09-17T15:05:00;14.49;59.16
70214;DHT22;60138;55.808;37.078;2022-09-17T15:07:26;14.47;59.28
70214;DHT22;60138;55.808;37.078;2022-09-17T15:09:52;14.42;59.28
70214;DHT22;60138;55.808;37.078;2022-09-17T15:12:20;14.36;58.99
70214;DHT22;60138;55.808;37.078;2022-09-17T15:14:47;14.28;59.28
70214;DHT22;60138;55.808;37.078;2022-09-17T15:17:15;14.18;59.30
70214;DHT22;60138;55.808;37.078;2022-09-17T15:19:51;14.10;59.48
70214;DHT22;60138;55.808;37.078;2022-09-17T15:22:22;13.99;59.58
70214;DHT22;60138;55.808;37.078;2022-09-17T15:32:47;13.65;60.09
70214;DHT22;60138;55.808;37.078;2022-09-17T15:37:43;13.50;60.68
70214;DHT22;60138;55.808;37.078;2022-09-17T15:40:30;13.39;60.67
70214;DHT22;60138;55.808;37.078;2022-09-17T15:45:39;13.17;61.47
70214;DHT22;60138;55.808;37.078;2022-09-17T15:48:05;13.05;61.59
70214;DHT22;60138;55.808;37.078;2022-09-17T15:50:33;12.94;61.86
70214;DHT22;60138;55.808;37.078;2022-09-17T15:55:35;12.78;62.33
70214;DHT22;60138;55.808;37.078;2022-09-17T15:58:29;12.72;62.84
70214;DHT22;60138;55.808;37.078;2022-09-17T16:08:59;12.35;63.45
70214;DHT22;60138;55.808;37.078;2022-09-17T16:11:30;12.23;63.69
70214;DHT22;60138;55.808;37.078;2022-09-17T16:13:59;12.13;63.74
70214;DHT22;60138;55.808;37.078;2022-09-17T16:16:35;12.04;64.18
70214;DHT22;60138;55.808;37.078;2022-09-17T16:19:02;11.97;64.35
70214;DHT22;60138;55.808;37.078;2022-09-17T16:21:28;11.89;64.41
70214;DHT22;60138;55.808;37.078;2022-09-17T16:23:54;11.82;64.62
70214;DHT22;60138;55.808;37.078;2022-09-17T16:26:23;11.76;64.76
70214;DHT22;60138;55.808;37.078;2022-09-17T16:28:51;11.72;64.98
70214;DHT22;60138;55.808;37.078;2022-09-17T16:31:18;11.70;65.26
70214;DHT22;60138;55.808;37.078;2022-09-17T16:33:45;11.71;65.44
70214;DHT22;60138;55.808;37.078;2022-09-17T16:36:10;11.68;65.62
70214;DHT22;60138;55.808;37.078;2022-09-17T16:38:36;11.63;65.62
70214;DHT22;60138;55.808;37.078;2022-09-17T16:41:05;11.58;65.89
70214;DHT22;60138;55.808;37.078;2022-09-17T16:43:31;11.55;65.88
70214;DHT22;60138;55.808;37.078;2022-09-17T16:46:02;11.47;66.04
70214;DHT22;60138;55.808;37.078;2022-09-17T16:48:28;11.43;66.22
70214;DHT22;60138;55.808;37.078;2022-09-17T16:50:54;11.40;66.43
70214;DHT22;60138;55.808;37.078;2022-09-17T16:53:20;11.33;66.60
70214;DHT22;60138;55.808;37.078;2022-09-17T16:55:46;11.31;66.90
70214;DHT22;60138;55.808;37.078;2022-09-17T16:58:11;11.28;66.89
70214;DHT22;60138;55.808;37.078;2022-09-17T17:00:37;11.24;67.15
70214;DHT22;60138;55.808;37.078;2022-09-17T17:03:03;11.23;67.54
70214;DHT22;60138;55.808;37.078;2022-09-17T17:05:29;11.20;67.68
70214;DHT22;60138;55.808;37.078;2022-09-17T17:07:56;11.16;68.17
70214;DHT22;60138;55.808;37.078;2022-09-17T17:10:23;11.16;68.36
70214;DHT22;60138;55.808;37.078;2022-09-17T17:12:48;11.15;68.07
70214;DHT22;60138;55.808;37.078;2022-09-17T17:15:14;11.11;68.19
70214;DHT22;60138;55.808;37.078;2022-09-17T17:17:40;11.10;68.62
70214;DHT22;60138;55.808;37.078;2022-09-17T17:20:07;11.09;68.38
70214;DHT22;60138;55.808;37.078;2022-09-17T17:22:33;11.05;68.66
70214;DHT22;60138;55.808;37.078;2022-09-17T17:24:59;11.03;68.72
70214;DHT22;60138;55.808;37.078;2022-09-17T17:27:24;11.00;68.87
70214;DHT22;60138;55.808;37.078;2022-09-17T17:29:50;11.01;68.70
70214;DHT22;60138;55.808;37.078;2022-09-17T17:32:16;11.00;68.65
70214;DHT22;60138;55.808;37.078;2022-09-17T17:34:41;10.98;68.75
70214;DHT22;60138;55.808;37.078;2022-09-17T17:37:07;10.93;68.63
70214;DHT22;60138;55.808;37.078;2022-09-17T17:39:33;10.89;68.65
70214;DHT22;60138;55.808;37.078;2022-09-17T17:41:58;10.88;68.82
70214;DHT22;60138;55.808;37.078;2022-09-17T17:44:24;10.85;68.83
70214;DHT22;60138;55.808;37.078;2022-09-17T17:46:49;10.80;68.91
70214;DHT22;60138;55.808;37.078;2022-09-17T17:49:15;10.77;68.94
70214;DHT22;60138;55.808;37.078;2022-09-17T17:51:41;10.72;69.13
70214;DHT22;60138;55.808;37.078;2022-09-17T17:54:06;10.67;69.20
70214;DHT22;60138;55.808;37.078;2022-09-17T17:56:32;10.63;69.36
70214;DHT22;60138;55.808;37.078;2022-09-17T17:58:58;10.58;69.36
70214;DHT22;60138;55.808;37.078;2022-09-17T18:01:28;10.54;69.44
70214;DHT22;60138;55.808;37.078;2022-09-17T18:03:59;10.51;69.55
70214;DHT22;60138;55.808;37.078;2022-09-17T18:06:26;10.49;69.72
70214;DHT22;60138;55.808;37.078;2022-09-17T18:08:52;10.48;69.74
70214;DHT22;60138;55.808;37.078;2022-09-17T18:11:18;10.44;69.65
70214;DHT22;60138;55.808;37.078;2022-09-17T18:13:44;10.40;69.66
70214;DHT22;60138;55.808;37.078;2022-09-17T18:16:13;10.38;69.83
70214;DHT22;60138;55.808;37.078;2022-09-17T18:18:44;10.34;69.84
70214;DHT22;60138;55.808;37.078;2022-09-17T18:21:13;10.30;69.82
70214;DHT22;60138;55.808;37.078;2022-09-17T18:23:39;10.26;69.84
70214;DHT22;60138;55.808;37.078;2022-09-17T18:26:07;10.22;69.92
70214;DHT22;60138;55.808;37.078;2022-09-17T18:28:35;10.19;69.94
70214;DHT22;60138;55.808;37.078;2022-09-17T18:31:31;10.15;70.16
70214;DHT22;60138;55.808;37.078;2022-09-17T18:34:02;10.11;70.16
70214;DHT22;60138;55.808;37.078;2022-09-17T18:36:31;10.09;70.22
70214;DHT22;60138;55.808;37.078;2022-09-17T18:38:58;10.06;70.16
70214;DHT22;60138;55.808;37.078;2022-09-17T18:41:24;10.03;70.26
70214;DHT22;60138;55.808;37.078;2022-09-17T18:43:50;10.00;70.44
70214;DHT22;60138;55.808;37.078;2022-09-17T18:46:15;9.96;70.40